Little Rock Air Force Base, Arkansas
Current Conditions -  °F | °C
As of 9:58 PM on Sunday 23 Nov 2014 (Local Time) from KLRF Reporting Station
Clear Clear  
Wind Chill: 16°   Ceiling: Unl
Heat Index: 16°   Visibility: 10mi
Dew Point: 15°   Wind: 12mph
Humidity: 94%   Direction: 190°S
Pressure: 29.38"   Gusts: NA
Location:  34.9074°N, 92.1397°W
Report Text: KLRF 240358Z AUTO 19010KT 10SM CLR 16/15 A2938 RMK AO2 SLP950 T01590149
Loading
Personal Weather Stations






























Interactive Weather Map New forecast layout! Learn more

10-Day Weather Forecast

Advertisements
Track Severe Weather on mobile